sensor_id;sensor_type;location;lat;lon;timestamp;temperature;humidity
13697;DHT22;6920;50.080;8.226;2023-03-01T00:00:53;2.30;99.90
13697;DHT22;6920;50.080;8.226;2023-03-01T00:03:20;2.30;99.90
13697;DHT22;6920;50.080;8.226;2023-03-01T00:05:48;2.30;99.90
13697;DHT22;6920;50.080;8.226;2023-03-01T00:08:15;2.30;99.90
13697;DHT22;6920;50.080;8.226;2023-03-01T00:10:43;2.30;99.90
13697;DHT22;6920;50.080;8.226;2023-03-01T00:13:11;2.30;99.90
13697;DHT22;6920;50.080;8.226;2023-03-01T00:15:39;2.30;99.90
13697;DHT22;6920;50.080;8.226;2023-03-01T00:18:07;2.30;99.90
13697;DHT22;6920;50.080;8.226;2023-03-01T00:20:34;2.30;99.90
13697;DHT22;6920;50.080;8.226;2023-03-01T00:25:28;2.30;99.90
13697;DHT22;6920;50.080;8.226;2023-03-01T00:27:57;2.30;99.90
13697;DHT22;6920;50.080;8.226;2023-03-01T00:30:24;2.30;99.90
13697;DHT22;6920;50.080;8.226;2023-03-01T00:32:51;2.30;99.90
13697;DHT22;6920;50.080;8.226;2023-03-01T00:35:18;2.30;99.90
13697;DHT22;6920;50.080;8.226;2023-03-01T00:37:45;2.20;99.90
13697;DHT22;6920;50.080;8.226;2023-03-01T00:40:13;2.20;99.90
13697;DHT22;6920;50.080;8.226;2023-03-01T00:42:41;2.20;99.90
13697;DHT22;6920;50.080;8.226;2023-03-01T00:45:10;2.20;99.90
13697;DHT22;6920;50.080;8.226;2023-03-01T00:47:38;2.20;99.90
13697;DHT22;6920;50.080;8.226;2023-03-01T00:50:06;2.20;99.90
13697;DHT22;6920;50.080;8.226;2023-03-01T00:52:33;2.20;99.90
13697;DHT22;6920;50.080;8.226;2023-03-01T00:55:00;2.20;99.90
13697;DHT22;6920;50.080;8.226;2023-03-01T00:57:28;2.00;99.90
13697;DHT22;6920;50.080;8.226;2023-03-01T01:02:24;2.20;99.90
13697;DHT22;6920;50.080;8.226;2023-03-01T01:04:51;2.20;99.90
13697;DHT22;6920;50.080;8.226;2023-03-01T01:07:18;2.10;99.90
13697;DHT22;6920;50.080;8.226;2023-03-01T01:09:46;2.10;99.90
13697;DHT22;6920;50.080;8.226;2023-03-01T01:12:13;2.20;99.90
13697;DHT22;6920;50.080;8.226;2023-03-01T01:14:40;2.20;99.90
13697;DHT22;6920;50.080;8.226;2023-03-01T01:17:07;2.20;99.90
13697;DHT22;6920;50.080;8.226;2023-03-01T01:19:36;2.20;99.90
13697;DHT22;6920;50.080;8.226;2023-03-01T01:22:03;2.10;99.90
13697;DHT22;6920;50.080;8.226;2023-03-01T01:24:30;2.10;99.90
13697;DHT22;6920;50.080;8.226;2023-03-01T01:26:57;2.10;99.90
13697;DHT22;6920;50.080;8.226;2023-03-01T01:29:24;2.10;99.90
13697;DHT22;6920;50.080;8.226;2023-03-01T01:31:52;2.10;99.90
13697;DHT22;6920;50.080;8.226;2023-03-01T01:34:20;2.10;99.90
13697;DHT22;6920;50.080;8.226;2023-03-01T01:36:50;2.10;99.90
13697;DHT22;6920;50.080;8.226;2023-03-01T01:41:46;1.80;99.90
13697;DHT22;6920;50.080;8.226;2023-03-01T01:44:16;1.70;99.90
13697;DHT22;6920;50.080;8.226;2023-03-01T01:46:47;1.60;99.90
13697;DHT22;6920;50.080;8.226;2023-03-01T01:49:23;1.60;99.90
13697;DHT22;6920;50.080;8.226;2023-03-01T01:51:57;1.50;99.90
13697;DHT22;6920;50.080;8.226;2023-03-01T01:54:30;1.60;99.90
13697;DHT22;6920;50.080;8.226;2023-03-01T01:57:01;1.60;99.90
13697;DHT22;6920;50.080;8.226;2023-03-01T01:59:30;1.60;99.90
13697;DHT22;6920;50.080;8.226;2023-03-01T02:02:00;1.60;99.90
13697;DHT22;6920;50.080;8.226;2023-03-01T02:04:28;1.60;99.90
13697;DHT22;6920;50.080;8.226;2023-03-01T02:07:01;1.60;99.90
13697;DHT22;6920;50.080;8.226;2023-03-01T02:09:30;1.60;99.90
13697;DHT22;6920;50.080;8.226;2023-03-01T02:11:59;1.50;99.90
13697;DHT22;6920;50.080;8.226;2023-03-01T02:14:26;1.50;99.90
13697;DHT22;6920;50.080;8.226;2023-03-01T02:16:53;1.60;99.90
13697;DHT22;6920;50.080;8.226;2023-03-01T02:19:31;1.40;99.90
13697;DHT22;6920;50.080;8.226;2023-03-01T02:22:08;1.50;99.90
13697;DHT22;6920;50.080;8.226;2023-03-01T02:24:44;1.50;99.90
13697;DHT22;6920;50.080;8.226;2023-03-01T02:27:16;1.40;99.90
13697;DHT22;6920;50.080;8.226;2023-03-01T02:29:45;1.40;99.90
13697;DHT22;6920;50.080;8.226;2023-03-01T02:32:12;1.30;99.90
13697;DHT22;6920;50.080;8.226;2023-03-01T02:34:39;1.50;99.90
13697;DHT22;6920;50.080;8.226;2023-03-01T02:37:09;1.60;99.90
13697;DHT22;6920;50.080;8.226;2023-03-01T02:39:41;1.70;99.90
13697;DHT22;6920;50.080;8.226;2023-03-01T02:42:13;1.90;99.90
13697;DHT22;6920;50.080;8.226;2023-03-01T02:44:41;2.00;99.90
13697;DHT22;6920;50.080;8.226;2023-03-01T02:47:09;2.00;99.90
13697;DHT22;6920;50.080;8.226;2023-03-01T02:49:37;2.10;99.90
13697;DHT22;6920;50.080;8.226;2023-03-01T02:52:30;2.10;99.90
13697;DHT22;6920;50.080;8.226;2023-03-01T02:55:06;2.20;99.90
13697;DHT22;6920;50.080;8.226;2023-03-01T02:57:36;2.20;99.90
13697;DHT22;6920;50.080;8.226;2023-03-01T03:00:07;2.30;99.90
13697;DHT22;6920;50.080;8.226;2023-03-01T03:02:36;2.30;99.90
13697;DHT22;6920;50.080;8.226;2023-03-01T03:05:07;2.40;99.90
13697;DHT22;6920;50.080;8.226;2023-03-01T03:07:35;2.40;99.90
13697;DHT22;6920;50.080;8.226;2023-03-01T03:10:04;2.30;99.90
13697;DHT22;6920;50.080;8.226;2023-03-01T03:12:32;2.40;99.90
13697;DHT22;6920;50.080;8.226;2023-03-01T03:14:59;2.30;99.90
13697;DHT22;6920;50.080;8.226;2023-03-01T03:17:26;2.30;99.90
13697;DHT22;6920;50.080;8.226;2023-03-01T03:19:54;2.40;99.90
13697;DHT22;6920;50.080;8.226;2023-03-01T03:22:21;2.30;99.90
13697;DHT22;6920;50.080;8.226;2023-03-01T03:24:48;2.30;99.90
13697;DHT22;6920;50.080;8.226;2023-03-01T03:27:15;2.30;99.90
13697;DHT22;6920;50.080;8.226;2023-03-01T03:29:42;2.30;99.90
13697;DHT22;6920;50.080;8.226;2023-03-01T03:32:10;2.30;99.90
13697;DHT22;6920;50.080;8.226;2023-03-01T03:34:37;2.30;99.90
13697;DHT22;6920;50.080;8.226;2023-03-01T03:37:05;2.30;99.90
13697;DHT22;6920;50.080;8.226;2023-03-01T03:39:52;2.20;99.90
13697;DHT22;6920;50.080;8.226;2023-03-01T03:42:21;2.20;99.90
13697;DHT22;6920;50.080;8.226;2023-03-01T03:44:48;2.20;99.90
13697;DHT22;6920;50.080;8.226;2023-03-01T03:47:15;2.20;99.90
13697;DHT22;6920;50.080;8.226;2023-03-01T03:49:42;2.30;99.90
13697;DHT22;6920;50.080;8.226;2023-03-01T03:52:11;2.20;99.90
13697;DHT22;6920;50.080;8.226;2023-03-01T03:54:39;2.20;99.90
13697;DHT22;6920;50.080;8.226;2023-03-01T03:57:06;2.20;99.90
13697;DHT22;6920;50.080;8.226;2023-03-01T03:59:33;2.20;99.90
13697;DHT22;6920;50.080;8.226;2023-03-01T04:02:00;2.20;99.90
13697;DHT22;6920;50.080;8.226;2023-03-01T04:04:27;2.20;99.90
13697;DHT22;6920;50.080;8.226;2023-03-01T04:06:54;2.10;99.90
13697;DHT22;6920;50.080;8.226;2023-03-01T04:09:23;2.10;99.90
13697;DHT22;6920;50.080;8.226;2023-03-01T04:11:50;2.10;99.90
13697;DHT22;6920;50.080;8.226;2023-03-01T04:14:17;2.00;99.90
13697;DHT22;6920;50.080;8.226;2023-03-01T04:16:44;1.80;99.90
13697;DHT22;6920;50.080;8.226;2023-03-01T04:19:11;1.70;99.90
13697;DHT22;6920;50.080;8.226;2023-03-01T04:21:38;1.80;99.90
13697;DHT22;6920;50.080;8.226;2023-03-01T04:24:05;1.60;99.90
13697;DHT22;6920;50.080;8.226;2023-03-01T04:26:34;1.50;99.90
13697;DHT22;6920;50.080;8.226;2023-03-01T04:29:01;1.40;99.90
13697;DHT22;6920;50.080;8.226;2023-03-01T04:31:28;1.50;99.90
13697;DHT22;6920;50.080;8.226;2023-03-01T04:33:56;1.60;99.90
13697;DHT22;6920;50.080;8.226;2023-03-01T04:36:25;1.70;99.90
13697;DHT22;6920;50.080;8.226;2023-03-01T04:38:52;1.80;99.90
13697;DHT22;6920;50.080;8.226;2023-03-01T04:41:21;1.80;99.90
13697;DHT22;6920;50.080;8.226;2023-03-01T04:43:51;1.80;99.90
13697;DHT22;6920;50.080;8.226;2023-03-01T04:46:19;1.80;99.90
13697;DHT22;6920;50.080;8.226;2023-03-01T04:48:46;1.80;99.90
13697;DHT22;6920;50.080;8.226;2023-03-01T04:51:14;1.80;99.90
13697;DHT22;6920;50.080;8.226;2023-03-01T04:53:42;1.80;99.90
13697;DHT22;6920;50.080;8.226;2023-03-01T04:56:10;1.80;99.90
13697;DHT22;6920;50.080;8.226;2023-03-01T04:58:37;1.70;99.90
13697;DHT22;6920;50.080;8.226;2023-03-01T05:01:10;1.70;99.90
13697;DHT22;6920;50.080;8.226;2023-03-01T05:03:41;1.70;99.90
13697;DHT22;6920;50.080;8.226;2023-03-01T05:06:09;1.60;99.90
13697;DHT22;6920;50.080;8.226;2023-03-01T05:08:37;1.60;99.90
13697;DHT22;6920;50.080;8.226;2023-03-01T05:11:04;1.60;99.90
13697;DHT22;6920;50.080;8.226;2023-03-01T05:13:34;1.50;99.90
13697;DHT22;6920;50.080;8.226;2023-03-01T05:16:03;1.50;99.90
13697;DHT22;6920;50.080;8.226;2023-03-01T05:18:33;1.50;99.90
13697;DHT22;6920;50.080;8.226;2023-03-01T05:21:04;1.50;99.90
13697;DHT22;6920;50.080;8.226;2023-03-01T05:23:32;1.50;99.90
13697;DHT22;6920;50.080;8.226;2023-03-01T05:26:00;1.60;99.90
13697;DHT22;6920;50.080;8.226;2023-03-01T05:28:29;1.50;99.90
13697;DHT22;6920;50.080;8.226;2023-03-01T05:30:57;1.50;99.90
13697;DHT22;6920;50.080;8.226;2023-03-01T05:33:25;1.50;99.90
13697;DHT22;6920;50.080;8.226;2023-03-01T05:35:54;1.40;99.90
13697;DHT22;6920;50.080;8.226;2023-03-01T05:38:21;1.30;99.90
13697;DHT22;6920;50.080;8.226;2023-03-01T05:40:49;1.20;99.90
13697;DHT22;6920;50.080;8.226;2023-03-01T05:43:17;1.10;99.90
13697;DHT22;6920;50.080;8.226;2023-03-01T05:45:45;1.20;99.90
13697;DHT22;6920;50.080;8.226;2023-03-01T05:48:12;1.30;99.90
13697;DHT22;6920;50.080;8.226;2023-03-01T05:50:41;1.40;99.90
13697;DHT22;6920;50.080;8.226;2023-03-01T05:53:12;1.40;99.90
13697;DHT22;6920;50.080;8.226;2023-03-01T05:55:40;1.50;99.90
13697;DHT22;6920;50.080;8.226;2023-03-01T05:58:10;1.60;99.90
13697;DHT22;6920;50.080;8.226;2023-03-01T06:00:37;1.60;99.90
13697;DHT22;6920;50.080;8.226;2023-03-01T06:03:06;1.60;99.90
13697;DHT22;6920;50.080;8.226;2023-03-01T06:05:33;1.70;99.90
13697;DHT22;6920;50.080;8.226;2023-03-01T06:08:03;1.80;99.90
13697;DHT22;6920;50.080;8.226;2023-03-01T06:10:31;4.50;99.90
13697;DHT22;6920;50.080;8.226;2023-03-01T06:12:58;1.90;99.90
13697;DHT22;6920;50.080;8.226;2023-03-01T06:15:26;1.90;99.90
13697;DHT22;6920;50.080;8.226;2023-03-01T06:17:54;1.90;99.90
13697;DHT22;6920;50.080;8.226;2023-03-01T06:20:26;2.00;99.90
13697;DHT22;6920;50.080;8.226;2023-03-01T06:22:53;2.00;99.90
13697;DHT22;6920;50.080;8.226;2023-03-01T06:25:24;2.10;99.90
13697;DHT22;6920;50.080;8.226;2023-03-01T06:27:54;2.10;99.90
13697;DHT22;6920;50.080;8.226;2023-03-01T06:30:22;2.10;99.90
13697;DHT22;6920;50.080;8.226;2023-03-01T06:32:52;2.10;99.90
13697;DHT22;6920;50.080;8.226;2023-03-01T06:35:26;2.20;99.90
13697;DHT22;6920;50.080;8.226;2023-03-01T06:37:57;2.20;99.90
13697;DHT22;6920;50.080;8.226;2023-03-01T06:40:25;2.30;99.90
13697;DHT22;6920;50.080;8.226;2023-03-01T06:42:53;2.30;99.90
13697;DHT22;6920;50.080;8.226;2023-03-01T06:45:21;2.40;99.90
13697;DHT22;6920;50.080;8.226;2023-03-01T06:47:48;2.50;99.90
13697;DHT22;6920;50.080;8.226;2023-03-01T06:50:16;2.50;99.90
13697;DHT22;6920;50.080;8.226;2023-03-01T06:52:43;2.60;99.90
13697;DHT22;6920;50.080;8.226;2023-03-01T06:55:11;2.60;99.90
13697;DHT22;6920;50.080;8.226;2023-03-01T06:57:38;2.60;99.90
13697;DHT22;6920;50.080;8.226;2023-03-01T07:00:08;2.60;99.90
13697;DHT22;6920;50.080;8.226;2023-03-01T07:02:35;2.70;99.90
13697;DHT22;6920;50.080;8.226;2023-03-01T07:05:03;2.70;99.90
13697;DHT22;6920;50.080;8.226;2023-03-01T07:07:30;2.70;99.90
13697;DHT22;6920;50.080;8.226;2023-03-01T07:09:57;2.60;99.90
13697;DHT22;6920;50.080;8.226;2023-03-01T07:12:25;2.60;99.90
13697;DHT22;6920;50.080;8.226;2023-03-01T07:14:52;2.70;99.90
13697;DHT22;6920;50.080;8.226;2023-03-01T07:17:20;2.70;99.90
13697;DHT22;6920;50.080;8.226;2023-03-01T07:19:49;2.80;99.90
13697;DHT22;6920;50.080;8.226;2023-03-01T07:22:16;2.90;99.90
13697;DHT22;6920;50.080;8.226;2023-03-01T07:24:43;3.00;99.90
13697;DHT22;6920;50.080;8.226;2023-03-01T07:27:11;3.10;99.90
13697;DHT22;6920;50.080;8.226;2023-03-01T07:29:38;3.10;99.90
13697;DHT22;6920;50.080;8.226;2023-03-01T07:32:06;3.20;99.90
13697;DHT22;6920;50.080;8.226;2023-03-01T07:34:35;3.10;99.90
13697;DHT22;6920;50.080;8.226;2023-03-01T07:37:02;3.40;99.90
13697;DHT22;6920;50.080;8.226;2023-03-01T07:39:31;3.30;99.90
13697;DHT22;6920;50.080;8.226;2023-03-01T07:41:58;3.30;99.90
13697;DHT22;6920;50.080;8.226;2023-03-01T07:44:26;3.30;99.90
13697;DHT22;6920;50.080;8.226;2023-03-01T07:46:54;3.30;99.90
13697;DHT22;6920;50.080;8.226;2023-03-01T07:49:23;3.30;99.90
13697;DHT22;6920;50.080;8.226;2023-03-01T07:51:53;3.30;99.90
13697;DHT22;6920;50.080;8.226;2023-03-01T07:54:22;3.30;99.90
13697;DHT22;6920;50.080;8.226;2023-03-01T07:56:49;3.30;99.90
13697;DHT22;6920;50.080;8.226;2023-03-01T07:59:16;3.40;99.90
13697;DHT22;6920;50.080;8.226;2023-03-01T08:01:43;3.30;99.90
13697;DHT22;6920;50.080;8.226;2023-03-01T08:04:12;3.30;99.90
13697;DHT22;6920;50.080;8.226;2023-03-01T08:06:39;3.40;99.90
13697;DHT22;6920;50.080;8.226;2023-03-01T08:09:08;3.50;99.90
13697;DHT22;6920;50.080;8.226;2023-03-01T08:11:35;3.60;99.90
13697;DHT22;6920;50.080;8.226;2023-03-01T08:14:05;3.50;99.90
13697;DHT22;6920;50.080;8.226;2023-03-01T08:16:34;3.70;99.90
13697;DHT22;6920;50.080;8.226;2023-03-01T08:19:05;3.80;99.90
13697;DHT22;6920;50.080;8.226;2023-03-01T08:21:33;3.90;99.90
13697;DHT22;6920;50.080;8.226;2023-03-01T08:24:02;3.90;99.90
13697;DHT22;6920;50.080;8.226;2023-03-01T08:26:31;3.90;99.90
13697;DHT22;6920;50.080;8.226;2023-03-01T08:28:59;4.00;99.90
13697;DHT22;6920;50.080;8.226;2023-03-01T08:31:28;4.20;99.90
13697;DHT22;6920;50.080;8.226;2023-03-01T08:34:00;4.10;99.90
13697;DHT22;6920;50.080;8.226;2023-03-01T08:36:30;4.20;99.90
13697;DHT22;6920;50.080;8.226;2023-03-01T08:38:58;4.20;99.90
13697;DHT22;6920;50.080;8.226;2023-03-01T08:41:25;4.30;99.90
13697;DHT22;6920;50.080;8.226;2023-03-01T08:43:56;4.20;99.90
13697;DHT22;6920;50.080;8.226;2023-03-01T08:46:26;4.30;99.90
13697;DHT22;6920;50.080;8.226;2023-03-01T08:48:53;4.20;99.90
13697;DHT22;6920;50.080;8.226;2023-03-01T08:51:22;4.30;99.90
13697;DHT22;6920;50.080;8.226;2023-03-01T08:53:50;4.40;99.90
13697;DHT22;6920;50.080;8.226;2023-03-01T08:56:17;4.50;99.90
13697;DHT22;6920;50.080;8.226;2023-03-01T08:58:46;4.70;99.90
13697;DHT22;6920;50.080;8.226;2023-03-01T09:01:17;4.70;99.90
13697;DHT22;6920;50.080;8.226;2023-03-01T09:03:45;4.80;99.90
13697;DHT22;6920;50.080;8.226;2023-03-01T09:06:12;5.00;99.90
13697;DHT22;6920;50.080;8.226;2023-03-01T09:08:42;4.90;99.90
13697;DHT22;6920;50.080;8.226;2023-03-01T09:11:11;4.70;99.90
13697;DHT22;6920;50.080;8.226;2023-03-01T09:13:39;5.10;99.90
13697;DHT22;6920;50.080;8.226;2023-03-01T09:16:07;5.30;99.90
13697;DHT22;6920;50.080;8.226;2023-03-01T09:18:36;5.70;99.90
13697;DHT22;6920;50.080;8.226;2023-03-01T09:21:04;5.70;99.90
13697;DHT22;6920;50.080;8.226;2023-03-01T09:23:33;5.80;99.90
13697;DHT22;6920;50.080;8.226;2023-03-01T09:26:02;5.90;99.90
13697;DHT22;6920;50.080;8.226;2023-03-01T09:28:29;5.80;99.90
13697;DHT22;6920;50.080;8.226;2023-03-01T09:30:58;5.70;99.90
13697;DHT22;6920;50.080;8.226;2023-03-01T09:33:27;5.80;99.90
13697;DHT22;6920;50.080;8.226;2023-03-01T09:35:59;6.00;99.90
13697;DHT22;6920;50.080;8.226;2023-03-01T09:38:27;6.30;99.90
13697;DHT22;6920;50.080;8.226;2023-03-01T09:40:54;6.20;99.90
13697;DHT22;6920;50.080;8.226;2023-03-01T09:43:25;6.10;99.90
13697;DHT22;6920;50.080;8.226;2023-03-01T09:46:00;6.40;99.90
13697;DHT22;6920;50.080;8.226;2023-03-01T09:48:36;6.50;99.90
13697;DHT22;6920;50.080;8.226;2023-03-01T09:51:12;6.70;99.90
13697;DHT22;6920;50.080;8.226;2023-03-01T09:53:40;6.70;99.90
13697;DHT22;6920;50.080;8.226;2023-03-01T09:56:15;6.80;99.90
13697;DHT22;6920;50.080;8.226;2023-03-01T09:58:49;6.70;99.90
13697;DHT22;6920;50.080;8.226;2023-03-01T10:01:30;6.70;99.90
13697;DHT22;6920;50.080;8.226;2023-03-01T10:04:10;6.90;99.90
13697;DHT22;6920;50.080;8.226;2023-03-01T10:06:45;7.10;99.90
13697;DHT22;6920;50.080;8.226;2023-03-01T10:09:16;7.10;99.90
13697;DHT22;6920;50.080;8.226;2023-03-01T10:11:47;6.90;99.90
13697;DHT22;6920;50.080;8.226;2023-03-01T10:14:24;7.10;99.90
13697;DHT22;6920;50.080;8.226;2023-03-01T10:16:57;7.50;99.90
13697;DHT22;6920;50.080;8.226;2023-03-01T10:19:31;7.60;99.90
13697;DHT22;6920;50.080;8.226;2023-03-01T10:22:04;7.70;99.90
13697;DHT22;6920;50.080;8.226;2023-03-01T10:24:35;7.90;99.80
13697;DHT22;6920;50.080;8.226;2023-03-01T10:27:07;8.30;99.20
13697;DHT22;6920;50.080;8.226;2023-03-01T10:29:41;8.50;98.90
13697;DHT22;6920;50.080;8.226;2023-03-01T10:32:11;8.30;99.50
13697;DHT22;6920;50.080;8.226;2023-03-01T10:34:38;8.70;98.90
13697;DHT22;6920;50.080;8.226;2023-03-01T10:37:12;8.90;98.30
13697;DHT22;6920;50.080;8.226;2023-03-01T10:39:55;9.00;98.20
13697;DHT22;6920;50.080;8.226;2023-03-01T10:42:27;8.80;97.90
13697;DHT22;6920;50.080;8.226;2023-03-01T10:44:56;9.10;98.00
13697;DHT22;6920;50.080;8.226;2023-03-01T10:47:25;9.00;97.30
13697;DHT22;6920;50.080;8.226;2023-03-01T10:50:04;9.30;97.50
13697;DHT22;6920;50.080;8.226;2023-03-01T10:52:36;9.50;97.30
13697;DHT22;6920;50.080;8.226;2023-03-01T10:55:23;9.60;97.00
13697;DHT22;6920;50.080;8.226;2023-03-01T10:58:07;9.60;97.10
13697;DHT22;6920;50.080;8.226;2023-03-01T11:00:46;9.60;97.40
13697;DHT22;6920;50.080;8.226;2023-03-01T11:03:17;9.70;97.00
13697;DHT22;6920;50.080;8.226;2023-03-01T11:05:52;9.40;96.70
13697;DHT22;6920;50.080;8.226;2023-03-01T11:08:36;9.80;96.50
13697;DHT22;6920;50.080;8.226;2023-03-01T11:11:21;9.80;96.20
13697;DHT22;6920;50.080;8.226;2023-03-01T11:13:55;9.50;95.70
13697;DHT22;6920;50.080;8.226;2023-03-01T11:16:28;9.70;95.70
13697;DHT22;6920;50.080;8.226;2023-03-01T11:18:58;9.60;95.90
13697;DHT22;6920;50.080;8.226;2023-03-01T11:21:28;9.60;95.30
13697;DHT22;6920;50.080;8.226;2023-03-01T11:24:00;10.10;95.50
13697;DHT22;6920;50.080;8.226;2023-03-01T11:26:30;10.30;95.10
13697;DHT22;6920;50.080;8.226;2023-03-01T11:29:02;10.10;95.00
13697;DHT22;6920;50.080;8.226;2023-03-01T11:31:31;10.00;94.30
13697;DHT22;6920;50.080;8.226;2023-03-01T11:34:05;10.20;94.50
13697;DHT22;6920;50.080;8.226;2023-03-01T11:36:36;10.20;94.30
13697;DHT22;6920;50.080;8.226;2023-03-01T11:39:20;10.20;94.70
13697;DHT22;6920;50.080;8.226;2023-03-01T11:42:00;10.40;94.10
13697;DHT22;6920;50.080;8.226;2023-03-01T11:44:31;10.00;94.10
13697;DHT22;6920;50.080;8.226;2023-03-01T11:47:16;10.00;94.30
13697;DHT22;6920;50.080;8.226;2023-03-01T11:52:48;10.30;93.90
13697;DHT22;6920;50.080;8.226;2023-03-01T11:55:41;10.10;93.70
13697;DHT22;6920;50.080;8.226;2023-03-01T12:01:23;10.50;93.10
13697;DHT22;6920;50.080;8.226;2023-03-01T12:04:17;10.30;93.90
13697;DHT22;6920;50.080;8.226;2023-03-01T12:06:52;10.50;93.70
13697;DHT22;6920;50.080;8.226;2023-03-01T12:09:34;10.80;93.30
13697;DHT22;6920;50.080;8.226;2023-03-01T12:12:27;11.00;93.60
13697;DHT22;6920;50.080;8.226;2023-03-01T12:15:09;10.70;93.00
13697;DHT22;6920;50.080;8.226;2023-03-01T12:17:53;10.80;93.50
13697;DHT22;6920;50.080;8.226;2023-03-01T12:20:29;10.70;93.40
13697;DHT22;6920;50.080;8.226;2023-03-01T12:23:16;10.60;93.10
13697;DHT22;6920;50.080;8.226;2023-03-01T12:25:54;10.90;92.90
13697;DHT22;6920;50.080;8.226;2023-03-01T12:28:42;11.00;92.80
13697;DHT22;6920;50.080;8.226;2023-03-01T12:31:43;11.10;93.10
13697;DHT22;6920;50.080;8.226;2023-03-01T12:34:25;11.70;92.40
13697;DHT22;6920;50.080;8.226;2023-03-01T12:37:14;11.20;92.60
13697;DHT22;6920;50.080;8.226;2023-03-01T12:39:52;11.50;92.20
13697;DHT22;6920;50.080;8.226;2023-03-01T12:42:28;13.30;92.50
13697;DHT22;6920;50.080;8.226;2023-03-01T12:45:26;11.10;92.00
13697;DHT22;6920;50.080;8.226;2023-03-01T12:48:14;10.80;92.20
13697;DHT22;6920;50.080;8.226;2023-03-01T12:50:48;10.90;92.80
13697;DHT22;6920;50.080;8.226;2023-03-01T12:53:22;11.30;92.10
13697;DHT22;6920;50.080;8.226;2023-03-01T12:55:53;11.30;92.20
13697;DHT22;6920;50.080;8.226;2023-03-01T12:58:27;11.00;91.90
13697;DHT22;6920;50.080;8.226;2023-03-01T13:01:16;11.10;92.50
13697;DHT22;6920;50.080;8.226;2023-03-01T13:07:02;11.10;92.20
13697;DHT22;6920;50.080;8.226;2023-03-01T13:09:38;11.10;92.00
13697;DHT22;6920;50.080;8.226;2023-03-01T13:15:28;11.00;92.00
13697;DHT22;6920;50.080;8.226;2023-03-01T13:18:01;11.00;92.10
13697;DHT22;6920;50.080;8.226;2023-03-01T13:20:34;11.30;92.60
13697;DHT22;6920;50.080;8.226;2023-03-01T13:23:07;11.00;91.70
13697;DHT22;6920;50.080;8.226;2023-03-01T13:26:00;10.90;91.90
13697;DHT22;6920;50.080;8.226;2023-03-01T13:28:56;11.00;92.10
13697;DHT22;6920;50.080;8.226;2023-03-01T13:31:59;11.30;91.90
13697;DHT22;6920;50.080;8.226;2023-03-01T13:34:51;11.40;91.50
13697;DHT22;6920;50.080;8.226;2023-03-01T13:46:12;11.10;91.30
13697;DHT22;6920;50.080;8.226;2023-03-01T13:48:47;11.30;91.00
13697;DHT22;6920;50.080;8.226;2023-03-01T13:51:23;11.30;91.30
13697;DHT22;6920;50.080;8.226;2023-03-01T13:53:54;11.40;91.20
13697;DHT22;6920;50.080;8.226;2023-03-01T13:56:25;11.60;91.20
13697;DHT22;6920;50.080;8.226;2023-03-01T13:58:58;11.60;90.80
13697;DHT22;6920;50.080;8.226;2023-03-01T14:01:29;11.20;90.90
13697;DHT22;6920;50.080;8.226;2023-03-01T14:03:58;11.20;91.00
13697;DHT22;6920;50.080;8.226;2023-03-01T14:06:28;11.20;90.80
13697;DHT22;6920;50.080;8.226;2023-03-01T14:09:03;11.20;91.20
13697;DHT22;6920;50.080;8.226;2023-03-01T14:12:23;11.10;90.70
13697;DHT22;6920;50.080;8.226;2023-03-01T14:14:58;11.50;90.50
13697;DHT22;6920;50.080;8.226;2023-03-01T14:17:46;11.50;90.50
13697;DHT22;6920;50.080;8.226;2023-03-01T14:20:18;11.50;91.00
13697;DHT22;6920;50.080;8.226;2023-03-01T14:22:49;11.70;89.80
13697;DHT22;6920;50.080;8.226;2023-03-01T14:25:27;11.70;90.10
13697;DHT22;6920;50.080;8.226;2023-03-01T14:27:59;12.20;90.30
13697;DHT22;6920;50.080;8.226;2023-03-01T14:30:41;12.00;89.90
13697;DHT22;6920;50.080;8.226;2023-03-01T14:33:22;12.20;89.60
13697;DHT22;6920;50.080;8.226;2023-03-01T14:35:58;12.10;89.20
13697;DHT22;6920;50.080;8.226;2023-03-01T14:38:34;12.40;89.10
13697;DHT22;6920;50.080;8.226;2023-03-01T14:41:04;12.40;88.60
13697;DHT22;6920;50.080;8.226;2023-03-01T14:43:33;12.30;89.20
13697;DHT22;6920;50.080;8.226;2023-03-01T14:46:00;11.30;90.10
13697;DHT22;6920;50.080;8.226;2023-03-01T14:48:28;11.30;90.50
13697;DHT22;6920;50.080;8.226;2023-03-01T14:50:56;11.80;90.60
13697;DHT22;6920;50.080;8.226;2023-03-01T14:53:25;12.10;90.30
13697;DHT22;6920;50.080;8.226;2023-03-01T14:55:56;11.90;89.60
13697;DHT22;6920;50.080;8.226;2023-03-01T14:58:27;11.30;90.40
13697;DHT22;6920;50.080;8.226;2023-03-01T15:00:58;10.50;91.20
13697;DHT22;6920;50.080;8.226;2023-03-01T15:03:30;10.20;91.70
13697;DHT22;6920;50.080;8.226;2023-03-01T15:06:00;10.10;91.60
13697;DHT22;6920;50.080;8.226;2023-03-01T15:08:28;10.00;91.90
13697;DHT22;6920;50.080;8.226;2023-03-01T15:11:03;9.90;91.80
13697;DHT22;6920;50.080;8.226;2023-03-01T15:13:32;10.00;92.00
13697;DHT22;6920;50.080;8.226;2023-03-01T15:16:06;9.70;92.10
13697;DHT22;6920;50.080;8.226;2023-03-01T15:18:36;9.60;92.30
13697;DHT22;6920;50.080;8.226;2023-03-01T15:21:08;9.50;92.40
13697;DHT22;6920;50.080;8.226;2023-03-01T15:23:37;9.50;92.70
13697;DHT22;6920;50.080;8.226;2023-03-01T15:26:22;9.50;92.70
13697;DHT22;6920;50.080;8.226;2023-03-01T15:28:52;9.30;92.80
13697;DHT22;6920;50.080;8.226;2023-03-01T15:31:25;9.30;93.00
13697;DHT22;6920;50.080;8.226;2023-03-01T15:34:08;9.20;93.10
13697;DHT22;6920;50.080;8.226;2023-03-01T15:36:41;9.20;93.10
13697;DHT22;6920;50.080;8.226;2023-03-01T15:39:35;9.00;93.40
13697;DHT22;6920;50.080;8.226;2023-03-01T15:42:07;8.90;93.40
13697;DHT22;6920;50.080;8.226;2023-03-01T15:44:38;8.90;93.60
13697;DHT22;6920;50.080;8.226;2023-03-01T15:47:22;8.80;93.70
13697;DHT22;6920;50.080;8.226;2023-03-01T15:49:52;8.70;94.10
13697;DHT22;6920;50.080;8.226;2023-03-01T15:52:23;8.70;94.10
13697;DHT22;6920;50.080;8.226;2023-03-01T15:54:56;8.70;94.10
13697;DHT22;6920;50.080;8.226;2023-03-01T15:57:24;8.60;94.20
13697;DHT22;6920;50.080;8.226;2023-03-01T15:59:52;8.50;94.30
13697;DHT22;6920;50.080;8.226;2023-03-01T16:04:47;8.40;94.70
13697;DHT22;6920;50.080;8.226;2023-03-01T16:07:14;8.30;94.70
13697;DHT22;6920;50.080;8.226;2023-03-01T16:12:14;8.30;95.00
13697;DHT22;6920;50.080;8.226;2023-03-01T16:14:44;8.30;95.00
13697;DHT22;6920;50.080;8.226;2023-03-01T16:17:12;8.30;95.10
13697;DHT22;6920;50.080;8.226;2023-03-01T16:19:41;8.20;95.10
13697;DHT22;6920;50.080;8.226;2023-03-01T16:22:09;8.00;95.20
13697;DHT22;6920;50.080;8.226;2023-03-01T16:24:36;8.00;95.20
13697;DHT22;6920;50.080;8.226;2023-03-01T16:27:03;7.90;95.30
13697;DHT22;6920;50.080;8.226;2023-03-01T16:29:30;7.80;95.30
13697;DHT22;6920;50.080;8.226;2023-03-01T16:32:01;7.70;95.60
13697;DHT22;6920;50.080;8.226;2023-03-01T16:34:28;7.70;95.60
13697;DHT22;6920;50.080;8.226;2023-03-01T16:36:56;7.70;95.70
13697;DHT22;6920;50.080;8.226;2023-03-01T16:39:23;7.70;95.80
13697;DHT22;6920;50.080;8.226;2023-03-01T16:41:50;7.60;95.80
13697;DHT22;6920;50.080;8.226;2023-03-01T16:44:18;7.50;95.80
13697;DHT22;6920;50.080;8.226;2023-03-01T16:46:45;7.50;95.70
13697;DHT22;6920;50.080;8.226;2023-03-01T16:49:13;7.40;95.80
13697;DHT22;6920;50.080;8.226;2023-03-01T16:51:41;7.40;95.80
13697;DHT22;6920;50.080;8.226;2023-03-01T16:54:10;7.30;95.60
13697;DHT22;6920;50.080;8.226;2023-03-01T16:56:37;7.20;95.80
13697;DHT22;6920;50.080;8.226;2023-03-01T16:59:05;7.20;95.70